Time;durP1;ratioP1;P1;durP2;ratioP2;P2;SDS_P1;SDS_P2;PMS_P1;PMS_P2;Temp;Humidity;BMP_temperature;BMP_pressure;BME280_temperature;BME280_humidity;BME280_pressure;Samples;Min_cycle;Max_cycle;Signal;HPM_P1;HPM_P2
2022/04/29 00:00:43;;;;;;;17.17;5.70;;;7.60;99.90;;;;;;4974571;28;20463;-91
2022/04/29 00:03:10;;;;;;;10.07;4.78;;;7.60;99.90;;;;;;4956130;28;20114;-92
2022/04/29 00:05:37;;;;;;;11.57;5.28;;;7.60;99.90;;;;;;4955083;29;20460;-91
2022/04/29 00:08:05;;;;;;;14.88;5.70;;;7.60;99.90;;;;;;4971441;28;20027;-89
2022/04/29 00:10:31;;;;;;;15.88;5.63;;;7.60;99.90;;;;;;4947434;29;20261;-91
2022/04/29 00:12:57;;;;;;;12.07;5.55;;;7.60;99.90;;;;;;4946707;29;20060;-90
2022/04/29 00:15:23;;;;;;;9.43;5.15;;;7.60;99.90;;;;;;4948614;29;20023;-90
2022/04/29 00:17:50;;;;;;;15.68;5.55;;;7.60;99.90;;;;;;4946373;29;20320;-91
2022/04/29 00:20:16;;;;;;;15.82;5.68;;;7.60;99.90;;;;;;4943215;29;20027;-89
2022/04/29 00:22:44;;;;;;;13.98;5.25;;;7.60;99.90;;;;;;4943094;29;20031;-89
2022/04/29 00:25:13;;;;;;;24.73;5.38;;;7.70;99.90;;;;;;4948518;29;20026;-91
2022/04/29 00:27:40;;;;;;;11.15;4.93;;;7.70;99.90;;;;;;4945393;29;20040;-92
2022/04/29 00:30:09;;;;;;;17.00;5.88;;;7.70;99.90;;;;;;4955465;29;20042;-89
2022/04/29 00:32:35;;;;;;;16.50;6.05;;;7.80;99.90;;;;;;4947769;29;20040;-92
2022/04/29 00:35:01;;;;;;;17.65;5.85;;;7.80;99.90;;;;;;4952848;29;20023;-90
2022/04/29 00:37:28;;;;;;;16.20;5.30;;;7.80;99.90;;;;;;4949839;29;20063;-91
2022/04/29 00:39:57;;;;;;;14.95;5.38;;;7.80;99.90;;;;;;4947224;29;20031;-90
2022/04/29 00:42:25;;;;;;;13.65;4.85;;;7.80;99.90;;;;;;4947462;29;20024;-90
2022/04/29 00:44:52;;;;;;;11.23;5.47;;;7.90;99.90;;;;;;4951392;29;20118;-91
2022/04/29 00:47:19;;;;;;;19.27;5.13;;;7.80;99.90;;;;;;4937422;29;20051;-90
2022/04/29 00:49:48;;;;;;;14.23;5.15;;;7.80;99.90;;;;;;4962293;29;20055;-90
2022/04/29 00:52:17;;;;;;;12.35;5.20;;;7.70;99.90;;;;;;4961791;29;20027;-90
2022/04/29 00:54:46;;;;;;;15.60;5.10;;;7.70;99.90;;;;;;4957709;29;20042;-90
2022/04/29 00:57:20;;;;;;;14.90;4.93;;;7.60;99.90;;;;;;4957105;29;20567;-91
2022/04/29 00:59:51;;;;;;;12.90;5.18;;;7.60;99.90;;;;;;4954524;29;20024;-92
2022/04/29 01:02:17;;;;;;;16.08;5.30;;;7.60;99.90;;;;;;4952468;29;20241;-90
2022/04/29 01:05:09;;;;;;;16.98;4.75;;;7.50;99.90;;;;;;4947715;29;20077;-90
2022/04/29 01:07:37;;;;;;;18.75;4.97;;;7.50;99.90;;;;;;4948222;29;20024;-92
2022/04/29 01:10:04;;;;;;;19.67;7.20;;;7.50;99.90;;;;;;4947066;29;20034;-91
2022/04/29 01:12:34;;;;;;;16.42;5.90;;;7.40;99.90;;;;;;4943239;29;20143;-90
2022/04/29 01:15:05;;;;;;;16.42;5.80;;;7.40;99.90;;;;;;4949739;29;20126;-90
2022/04/29 01:17:36;;;;;;;12.07;5.75;;;7.30;99.90;;;;;;4948019;29;20520;-90
2022/04/29 01:20:04;;;;;;;18.65;5.95;;;7.30;99.90;;;;;;4963617;29;20047;-90
2022/04/29 01:22:31;;;;;;;12.40;5.55;;;7.30;99.90;;;;;;4955291;29;20031;-90
2022/04/29 01:24:57;;;;;;;10.82;5.43;;;7.20;99.90;;;;;;4953841;29;20468;-90
2022/04/29 01:27:23;;;;;;;12.90;5.18;;;7.20;99.90;;;;;;4957814;29;20033;-90
2022/04/29 01:29:56;;;;;;;17.13;5.35;;;7.20;99.90;;;;;;4954573;29;20050;-90
2022/04/29 01:32:25;;;;;;;11.60;5.30;;;7.20;99.90;;;;;;4948642;29;20454;-90
2022/04/29 01:34:51;;;;;;;17.60;5.15;;;7.20;99.90;;;;;;4944236;29;20098;-89
2022/04/29 01:37:16;;;;;;;12.82;5.13;;;7.20;99.90;;;;;;4945494;29;20457;-91
2022/04/29 01:39:42;;;;;;;10.80;5.55;;;7.20;99.90;;;;;;4947153;28;20024;-91
2022/04/29 01:42:08;;;;;;;14.85;5.25;;;7.20;99.90;;;;;;4945767;29;20481;-90
2022/04/29 01:44:34;;;;;;;15.60;5.75;;;7.20;99.90;;;;;;4948242;29;20397;-90
2022/04/29 01:46:59;;;;;;;16.15;5.55;;;7.10;99.90;;;;;;4948220;29;20031;-90
2022/04/29 01:49:25;;;;;;;13.05;5.88;;;7.10;99.90;;;;;;4943533;29;20034;-90
2022/04/29 01:51:54;;;;;;;11.70;6.20;;;7.10;99.90;;;;;;4944735;29;20389;-91
2022/04/29 01:54:19;;;;;;;18.58;6.05;;;7.00;99.90;;;;;;4944758;29;20477;-90
2022/04/29 01:56:47;;;;;;;11.90;6.03;;;7.00;99.90;;;;;;4944224;29;20063;-91
2022/04/29 01:59:13;;;;;;;12.02;5.03;;;7.00;99.90;;;;;;4947269;29;20162;-90
2022/04/29 02:01:39;;;;;;;10.15;5.28;;;7.00;99.90;;;;;;4944955;29;20098;-91
2022/04/29 02:04:05;;;;;;;20.92;6.20;;;6.90;99.90;;;;;;4942567;29;20027;-90
2022/04/29 02:06:31;;;;;;;15.35;6.45;;;6.90;99.90;;;;;;4944591;29;20031;-91
2022/04/29 02:08:58;;;;;;;12.80;6.18;;;6.90;99.90;;;;;;4944530;29;20027;-90
2022/04/29 02:11:24;;;;;;;16.75;5.35;;;7.00;99.90;;;;;;4947318;29;20039;-90
2022/04/29 02:13:49;;;;;;;13.55;5.90;;;7.00;99.90;;;;;;4944650;29;20062;-90
2022/04/29 02:16:15;;;;;;;12.18;4.60;;;7.00;99.90;;;;;;4944424;29;20031;-91
2022/04/29 02:18:41;;;;;;;13.82;5.88;;;7.00;99.90;;;;;;4944146;29;20040;-90
2022/04/29 02:21:07;;;;;;;13.82;5.30;;;7.00;99.90;;;;;;4950762;29;20055;-91
2022/04/29 02:23:35;;;;;;;13.48;6.00;;;6.90;99.90;;;;;;4949727;29;20019;-91
2022/04/29 02:26:01;;;;;;;6.55;3.90;;;6.90;99.90;;;;;;4944203;29;20054;-90
2022/04/29 02:28:31;;;;;;;13.50;5.45;;;6.90;99.90;;;;;;4945944;29;20370;-91
2022/04/29 02:30:57;;;;;;;14.68;6.43;;;6.90;99.90;;;;;;4944196;29;20031;-91
2022/04/29 02:33:23;;;;;;;12.48;5.30;;;6.90;99.90;;;;;;4945715;29;20489;-91
2022/04/29 02:35:49;;;;;;;12.05;5.80;;;6.80;99.90;;;;;;4944016;29;20039;-89
2022/04/29 02:38:15;;;;;;;16.92;6.00;;;6.80;99.90;;;;;;4941538;29;20122;-90
2022/04/29 02:40:41;;;;;;;16.88;7.68;;;6.80;99.90;;;;;;4950088;29;20079;-90
2022/04/29 02:43:07;;;;;;;11.77;6.18;;;6.80;99.90;;;;;;4958490;29;20039;-89
2022/04/29 02:45:33;;;;;;;17.05;5.60;;;6.80;99.90;;;;;;4948997;29;20042;-91
2022/04/29 02:47:59;;;;;;;15.93;5.65;;;6.80;99.90;;;;;;4944638;29;20033;-90
2022/04/29 02:50:26;;;;;;;14.23;6.15;;;6.70;99.90;;;;;;4946603;29;20027;-91
2022/04/29 02:52:51;;;;;;;13.35;6.13;;;6.70;99.90;;;;;;4943744;29;20512;-90
2022/04/29 02:55:18;;;;;;;17.88;6.90;;;6.70;99.90;;;;;;4948155;29;20019;-90
2022/04/29 02:57:44;;;;;;;26.60;6.78;;;6.60;99.90;;;;;;4946932;29;20019;-91
2022/04/29 03:00:11;;;;;;;16.27;6.22;;;6.60;99.90;;;;;;4946942;29;20032;-90
2022/04/29 03:02:37;;;;;;;18.35;6.28;;;6.50;99.90;;;;;;4947200;29;20031;-91
2022/04/29 03:05:07;;;;;;;15.50;6.63;;;6.50;99.90;;;;;;4946505;29;20106;-90
2022/04/29 03:07:35;;;;;;;18.70;6.70;;;6.50;99.90;;;;;;4944399;29;20035;-90
2022/04/29 03:10:01;;;;;;;12.07;5.63;;;6.40;99.90;;;;;;4943813;29;20103;-89
2022/04/29 03:12:27;;;;;;;14.43;6.65;;;6.40;99.90;;;;;;4945777;29;20142;-90
2022/04/29 03:14:53;;;;;;;16.50;6.50;;;6.40;99.90;;;;;;4947094;29;20042;-89
2022/04/29 03:20:04;;;;;;;20.73;7.32;;;6.30;99.90;;;;;;4947675;29;20077;-91
2022/04/29 03:22:31;;;;;;;20.77;6.65;;;6.20;99.90;;;;;;4956202;29;20036;-89
2022/04/29 03:24:57;;;;;;;17.63;7.20;;;6.20;99.90;;;;;;4952482;29;20055;-89
2022/04/29 03:27:22;;;;;;;19.88;8.68;;;6.20;99.90;;;;;;4945487;28;20089;-91
2022/04/29 03:29:48;;;;;;;17.30;8.20;;;6.20;99.90;;;;;;4941896;29;20019;-92
2022/04/29 03:32:14;;;;;;;16.13;6.60;;;6.10;99.90;;;;;;4948716;29;20548;-90
2022/04/29 03:34:40;;;;;;;12.15;6.80;;;6.10;99.90;;;;;;4944424;29;20083;-90
2022/04/29 03:37:08;;;;;;;16.98;6.50;;;6.10;99.90;;;;;;4944176;29;20034;-91
2022/04/29 03:39:33;;;;;;;15.10;7.03;;;6.10;99.90;;;;;;4930068;29;20032;-91
2022/04/29 03:42:00;;;;;;;17.92;6.80;;;6.00;99.90;;;;;;4945956;29;20576;-90
2022/04/29 03:44:26;;;;;;;18.40;6.50;;;6.00;99.90;;;;;;4946934;29;20098;-91
2022/04/29 03:46:51;;;;;;;18.15;6.47;;;6.00;99.90;;;;;;4950692;29;20031;-90
2022/04/29 03:49:35;;;;;;;15.95;7.75;;;6.00;99.90;;;;;;4953266;29;20032;-90
2022/04/29 03:52:01;;;;;;;26.48;8.52;;;6.00;99.90;;;;;;4952804;29;20079;-91
2022/04/29 03:54:27;;;;;;;22.67;7.75;;;6.00;99.90;;;;;;4949266;29;20083;-90
2022/04/29 03:56:52;;;;;;;15.18;7.78;;;6.00;99.90;;;;;;4947365;29;20599;-91
2022/04/29 03:59:19;;;;;;;24.80;7.25;;;6.00;99.90;;;;;;4950141;29;20026;-90
2022/04/29 04:01:45;;;;;;;15.57;7.50;;;6.00;99.90;;;;;;4946065;29;20477;-89
2022/04/29 04:04:11;;;;;;;19.60;7.40;;;5.90;99.90;;;;;;4953408;28;20074;-90
2022/04/29 04:06:52;;;;;;;20.33;8.27;;;5.90;99.90;;;;;;4946907;29;20024;-90
2022/04/29 04:09:22;;;;;;;15.48;7.10;;;5.90;99.90;;;;;;4947114;29;20035;-90
2022/04/29 04:11:51;;;;;;;14.18;7.85;;;6.00;99.90;;;;;;4945944;29;20038;-91
2022/04/29 04:14:18;;;;;;;20.17;9.45;;;5.90;99.90;;;;;;4946612;29;20051;-90
2022/04/29 04:16:45;;;;;;;13.10;6.65;;;5.80;99.90;;;;;;4945811;29;20074;-91
2022/04/29 04:19:11;;;;;;;19.67;10.50;;;5.80;99.90;;;;;;4946060;29;20950;-91
2022/04/29 04:21:37;;;;;;;23.35;8.80;;;5.80;99.90;;;;;;4959631;28;20020;-90
2022/04/29 04:24:03;;;;;;;20.92;9.35;;;5.80;99.90;;;;;;4946583;29;20047;-91
2022/04/29 04:26:29;;;;;;;19.30;10.43;;;5.80;99.90;;;;;;4946097;29;20032;-92
2022/04/29 04:28:54;;;;;;;21.80;10.13;;;5.70;99.90;;;;;;4943399;29;20032;-90
2022/04/29 04:31:21;;;;;;;22.90;10.32;;;5.70;99.90;;;;;;4944550;29;20031;-90
2022/04/29 04:33:50;;;;;;;26.17;11.23;;;5.70;99.90;;;;;;4944093;29;20075;-90
2022/04/29 04:36:17;;;;;;;28.92;11.75;;;5.70;99.90;;;;;;4944810;29;20023;-90
2022/04/29 04:38:45;;;;;;;27.52;11.18;;;5.70;99.90;;;;;;4942567;29;20465;-90
2022/04/29 04:41:13;;;;;;;25.45;9.93;;;5.70;99.90;;;;;;4944598;29;20023;-91
2022/04/29 04:43:39;;;;;;;19.45;9.95;;;5.60;99.90;;;;;;4944764;29;20057;-90
2022/04/29 04:46:06;;;;;;;24.48;10.32;;;5.70;99.90;;;;;;4944124;29;20024;-91
2022/04/29 04:48:32;;;;;;;19.42;10.60;;;5.70;99.90;;;;;;4943092;29;20043;-91
2022/04/29 04:51:01;;;;;;;19.73;10.13;;;5.60;99.90;;;;;;4944815;29;20111;-90
2022/04/29 04:53:28;;;;;;;24.05;9.75;;;5.60;99.90;;;;;;4942492;29;20433;-90
2022/04/29 04:55:53;;;;;;;19.13;10.20;;;5.60;99.90;;;;;;4946650;29;20091;-90
2022/04/29 04:58:19;;;;;;;20.13;11.20;;;5.60;99.90;;;;;;4955790;29;20046;-90
2022/04/29 05:00:45;;;;;;;20.40;10.43;;;5.70;99.90;;;;;;4956062;29;20008;-90
2022/04/29 05:03:12;;;;;;;24.88;11.85;;;5.70;99.90;;;;;;4954488;29;20016;-91
2022/04/29 05:05:40;;;;;;;26.55;11.73;;;5.70;99.90;;;;;;4949703;29;20027;-90
2022/04/29 05:08:06;;;;;;;24.50;12.70;;;5.70;99.90;;;;;;4947719;29;20381;-90
2022/04/29 05:10:32;;;;;;;20.23;10.65;;;5.60;99.90;;;;;;4946289;29;20122;-91
2022/04/29 05:12:58;;;;;;;31.90;11.88;;;5.60;99.90;;;;;;4942060;29;20082;-90
2022/04/29 05:15:23;;;;;;;26.70;11.60;;;5.60;99.90;;;;;;4948049;29;20062;-91
2022/04/29 05:17:49;;;;;;;26.83;10.95;;;5.60;99.90;;;;;;4963604;29;20371;-90
2022/04/29 05:20:16;;;;;;;23.63;11.90;;;5.60;99.90;;;;;;4959889;28;20031;-90
2022/04/29 05:22:44;;;;;;;25.95;11.77;;;5.60;99.90;;;;;;4960347;29;20179;-90
2022/04/29 05:25:09;;;;;;;34.05;13.30;;;5.60;99.90;;;;;;4974849;29;20031;-90
2022/04/29 05:27:35;;;;;;;25.90;11.93;;;5.60;99.90;;;;;;4955031;28;20029;-91
2022/04/29 05:30:02;;;;;;;23.98;11.52;;;5.60;99.90;;;;;;4954970;29;20033;-91
2022/04/29 05:32:31;;;;;;;26.08;12.70;;;5.60;99.90;;;;;;4958157;28;20062;-89
2022/04/29 05:35:00;;;;;;;25.98;11.75;;;5.60;99.90;;;;;;4959794;29;20486;-90
2022/04/29 05:37:27;;;;;;;27.50;12.20;;;5.60;99.90;;;;;;4956523;29;20034;-90
2022/04/29 05:42:40;;;;;;;18.85;10.15;;;5.60;99.90;;;;;;4956724;29;20082;-90
2022/04/29 05:45:06;;;;;;;28.35;12.50;;;5.60;99.90;;;;;;4955663;28;20019;-90
2022/04/29 05:47:31;;;;;;;21.33;11.98;;;5.60;99.90;;;;;;4955675;29;20476;-90
2022/04/29 05:49:57;;;;;;;23.25;10.98;;;5.70;99.90;;;;;;4955057;28;20019;-90
2022/04/29 05:52:23;;;;;;;25.48;12.82;;;5.60;99.90;;;;;;4953426;29;20506;-91
2022/04/29 05:54:48;;;;;;;26.67;11.75;;;5.70;99.90;;;;;;4955550;29;20499;-90
2022/04/29 05:57:14;;;;;;;26.17;11.43;;;5.70;99.90;;;;;;4954605;29;20034;-90
2022/04/29 05:59:40;;;;;;;27.73;12.35;;;5.70;99.90;;;;;;4955561;28;20038;-90
2022/04/29 06:02:06;;;;;;;21.13;11.48;;;5.70;99.90;;;;;;4954453;28;20035;-89
2022/04/29 06:04:32;;;;;;;30.23;12.05;;;5.80;99.90;;;;;;4952506;29;20023;-89
2022/04/29 06:06:58;;;;;;;23.88;11.70;;;5.80;99.90;;;;;;4954327;29;20029;-91
2022/04/29 06:09:28;;;;;;;24.20;12.57;;;5.80;99.90;;;;;;4952092;29;20062;-90
2022/04/29 06:11:54;;;;;;;28.95;11.43;;;5.80;99.90;;;;;;4954682;29;20118;-90
2022/04/29 06:14:20;;;;;;;26.10;10.98;;;5.80;99.90;;;;;;4955345;28;20063;-90
2022/04/29 06:16:46;;;;;;;22.20;10.63;;;5.80;99.90;;;;;;4955165;28;20529;-90
2022/04/29 06:19:12;;;;;;;26.50;11.00;;;5.90;99.90;;;;;;4956391;28;20051;-91
2022/04/29 06:21:41;;;;;;;25.65;11.45;;;5.90;99.90;;;;;;4954935;28;20074;-90
2022/04/29 06:24:08;;;;;;;25.95;13.18;;;5.90;99.90;;;;;;4954883;29;20493;-91
2022/04/29 06:26:34;;;;;;;24.30;11.50;;;5.90;99.90;;;;;;4955176;28;20090;-90
2022/04/29 06:29:00;;;;;;;25.30;11.48;;;6.00;99.90;;;;;;4956861;28;20118;-90
2022/04/29 06:31:25;;;;;;;22.70;10.93;;;6.00;99.90;;;;;;4957117;29;20077;-90
2022/04/29 06:33:51;;;;;;;24.85;11.15;;;6.10;99.90;;;;;;4957103;28;20023;-90
2022/04/29 06:36:17;;;;;;;25.92;11.98;;;6.10;99.90;;;;;;4957455;28;20023;-90
2022/04/29 06:38:42;;;;;;;23.70;11.77;;;6.20;99.90;;;;;;4966049;29;20027;-90
2022/04/29 06:41:08;;;;;;;23.25;11.23;;;6.20;99.90;;;;;;4968607;29;20524;-89
2022/04/29 06:43:34;;;;;;;25.05;12.02;;;6.20;99.90;;;;;;4968689;29;20094;-89
2022/04/29 06:46:00;;;;;;;21.48;12.27;;;6.40;99.90;;;;;;4969661;29;20053;-90
2022/04/29 06:48:25;;;;;;;27.17;11.63;;;6.50;99.90;;;;;;4965351;29;20031;-90
2022/04/29 06:50:51;;;;;;;30.23;12.23;;;6.60;99.90;;;;;;4952897;29;20025;-90
2022/04/29 06:53:17;;;;;;;31.25;12.70;;;6.70;99.90;;;;;;4935575;29;20051;-88
2022/04/29 06:55:43;;;;;;;32.13;12.48;;;6.80;99.90;;;;;;4949534;29;20494;-88
2022/04/29 06:58:08;;;;;;;21.65;11.73;;;6.90;99.90;;;;;;4944793;29;20023;-88
2022/04/29 07:00:35;;;;;;;31.30;10.90;;;7.00;99.90;;;;;;4944826;29;20055;-90
2022/04/29 07:03:03;;;;;;;27.67;11.63;;;7.00;99.90;;;;;;4944445;29;20082;-88
2022/04/29 07:05:33;;;;;;;24.88;12.18;;;7.10;99.90;;;;;;4944246;29;20024;-89
2022/04/29 07:07:59;;;;;;;23.73;12.07;;;7.20;99.90;;;;;;4947446;29;20493;-87
2022/04/29 07:10:25;;;;;;;22.48;11.35;;;7.30;99.90;;;;;;4944667;29;20047;-89
2022/04/29 07:12:51;;;;;;;24.85;11.85;;;7.40;99.90;;;;;;4947009;29;20060;-87
2022/04/29 07:15:17;;;;;;;24.70;12.68;;;7.50;99.90;;;;;;4956458;29;20047;-88
2022/04/29 07:17:44;;;;;;;29.67;12.80;;;7.50;99.90;;;;;;4956981;29;20038;-90
2022/04/29 07:20:12;;;;;;;19.42;11.45;;;7.60;99.90;;;;;;4952179;29;20031;-88
2022/04/29 07:22:49;;;;;;;25.00;11.77;;;7.70;99.90;;;;;;4947621;29;20050;-90
2022/04/29 07:25:15;;;;;;;25.02;11.43;;;7.90;99.90;;;;;;4952470;29;20110;-87
2022/04/29 07:27:41;;;;;;;22.05;11.50;;;8.00;99.90;;;;;;4953269;28;20027;-87
2022/04/29 07:30:08;;;;;;;28.58;12.15;;;8.20;99.90;;;;;;4947837;28;20499;-87
2022/04/29 07:32:34;;;;;;;28.23;11.90;;;8.30;99.90;;;;;;4952629;29;20130;-87
2022/04/29 07:43:14;;;;;;;16.67;8.40;;;8.70;99.90;;;;;;4950142;28;20034;-89
2022/04/29 07:45:42;;;;;;;16.98;8.57;;;8.60;99.90;;;;;;4954007;29;20031;-87
2022/04/29 07:48:08;;;;;;;14.57;7.43;;;8.60;99.90;;;;;;4948898;28;20446;-88
2022/04/29 07:50:35;;;;;;;20.40;7.18;;;8.60;99.90;;;;;;4949016;29;20051;-88
2022/04/29 07:53:03;;;;;;;16.88;7.40;;;8.60;99.90;;;;;;4948208;28;20472;-88
2022/04/29 07:55:29;;;;;;;17.05;7.53;;;8.60;99.90;;;;;;4943572;29;20316;-88
2022/04/29 07:57:56;;;;;;;12.75;7.20;;;8.60;99.90;;;;;;4938641;29;20298;-88
2022/04/29 08:00:22;;;;;;;21.98;7.80;;;8.70;99.90;;;;;;4948005;28;20068;-88
2022/04/29 08:02:48;;;;;;;18.67;8.45;;;8.70;99.90;;;;;;4947959;29;20055;-88
2022/04/29 08:05:14;;;;;;;21.00;8.65;;;8.70;99.90;;;;;;4954145;29;20023;-86
2022/04/29 08:07:40;;;;;;;20.52;9.20;;;8.70;99.90;;;;;;4956256;29;20130;-86
2022/04/29 08:10:08;;;;;;;18.52;7.45;;;8.70;99.90;;;;;;4954782;29;20034;-87
2022/04/29 08:12:35;;;;;;;20.17;8.68;;;8.70;99.90;;;;;;4952483;28;20150;-87
2022/04/29 08:15:01;;;;;;;18.10;8.98;;;8.80;99.90;;;;;;4950553;28;20019;-88
2022/04/29 08:17:27;;;;;;;22.33;9.38;;;8.80;99.90;;;;;;4952288;29;20094;-87
2022/04/29 08:19:52;;;;;;;21.13;9.43;;;8.90;99.90;;;;;;4953025;28;20023;-88
2022/04/29 08:22:20;;;;;;;17.92;7.68;;;8.90;99.90;;;;;;4952735;28;20031;-88
2022/04/29 08:24:48;;;;;;;13.23;7.50;;;8.90;99.90;;;;;;4952799;28;20042;-88
2022/04/29 08:27:14;;;;;;;11.90;7.38;;;9.00;99.90;;;;;;4953152;29;20786;-88
2022/04/29 08:29:40;;;;;;;13.95;7.80;;;9.00;99.90;;;;;;4953390;28;20026;-87
2022/04/29 08:32:07;;;;;;;14.65;7.68;;;9.00;99.90;;;;;;4953201;29;20082;-88
2022/04/29 08:34:33;;;;;;;16.77;7.13;;;9.10;99.90;;;;;;4952672;29;20401;-89
2022/04/29 08:37:03;;;;;;;17.33;7.28;;;9.10;99.90;;;;;;4954074;28;20037;-88
2022/04/29 08:39:30;;;;;;;14.90;7.40;;;9.10;99.90;;;;;;4952769;29;20058;-88
2022/04/29 08:42:01;;;;;;;14.32;6.38;;;9.20;99.90;;;;;;4952930;29;20126;-90
2022/04/29 08:44:30;;;;;;;18.08;6.35;;;9.30;99.90;;;;;;4950970;29;20034;-88
2022/04/29 08:46:57;;;;;;;12.95;6.80;;;9.40;99.90;;;;;;4952365;28;20031;-87
2022/04/29 08:49:26;;;;;;;14.80;6.90;;;9.50;99.90;;;;;;4952761;28;20019;-89
2022/04/29 08:51:53;;;;;;;13.38;7.60;;;9.50;99.90;;;;;;4955912;29;20039;-89
2022/04/29 08:59:59;;;;;;;15.02;8.00;;;9.90;98.20;;;;;;4955794;29;20538;-87
2022/04/29 09:02:29;;;;;;;13.90;6.82;;;10.00;97.50;;;;;;4954657;28;20027;-88
2022/04/29 09:04:59;;;;;;;12.45;7.30;;;10.10;97.30;;;;;;4957664;29;20039;-89
2022/04/29 09:07:57;;;;;;;11.82;6.10;;;10.10;96.80;;;;;;4964555;28;20098;-88
2022/04/29 09:10:26;;;;;;;8.38;5.63;;;10.10;96.30;;;;;;4965553;28;20043;-88
2022/04/29 09:12:52;;;;;;;16.92;6.97;;;10.10;96.10;;;;;;4957690;28;20071;-89
2022/04/29 09:15:19;;;;;;;13.35;7.07;;;10.10;95.70;;;;;;4956564;28;20417;-89
2022/04/29 09:17:46;;;;;;;11.65;5.68;;;10.10;95.30;;;;;;4957291;28;20110;-89
2022/04/29 09:20:18;;;;;;;14.68;6.68;;;10.20;95.10;;;;;;4958096;28;20023;-88
2022/04/29 09:22:47;;;;;;;16.58;6.88;;;10.20;94.80;;;;;;4958020;28;20035;-88
2022/04/29 09:25:13;;;;;;;16.35;7.15;;;10.20;94.60;;;;;;4958604;28;20024;-89
2022/04/29 09:27:59;;;;;;;14.30;7.07;;;10.30;94.60;;;;;;4967771;28;20035;-90
2022/04/29 09:30:37;;;;;;;12.40;7.20;;;10.40;94.40;;;;;;4968313;28;20019;-89
2022/04/29 09:33:04;;;;;;;13.45;6.97;;;10.50;94.10;;;;;;4964088;28;20031;-88
2022/04/29 09:35:39;;;;;;;13.82;6.57;;;10.60;93.70;;;;;;4962086;28;20437;-88
2022/04/29 09:40:51;;;;;;;15.15;7.35;;;10.60;93.10;;;;;;4963160;28;20046;-88
2022/04/29 09:43:16;;;;;;;16.15;6.68;;;10.70;92.70;;;;;;4959720;28;20055;-89
2022/04/29 09:45:42;;;;;;;12.13;6.60;;;10.70;92.40;;;;;;4956960;28;20058;-89
2022/04/29 09:48:09;;;;;;;17.48;7.70;;;10.70;92.20;;;;;;4957299;28;20031;-88
2022/04/29 09:50:49;;;;;;;15.35;6.55;;;10.70;92.00;;;;;;4956799;28;20190;-88
2022/04/29 09:53:25;;;;;;;14.80;7.93;;;10.70;92.00;;;;;;4956830;28;20066;-89
2022/04/29 09:56:09;;;;;;;14.23;7.25;;;10.80;91.90;;;;;;4956581;28;20098;-89
2022/04/29 09:58:35;;;;;;;18.63;7.40;;;10.80;91.60;;;;;;4956395;28;20034;-89
2022/04/29 10:01:04;;;;;;;17.67;6.85;;;10.90;91.50;;;;;;4956812;28;20027;-88
2022/04/29 10:03:30;;;;;;;10.80;6.90;;;10.90;91.20;;;;;;4956556;28;20027;-88
2022/04/29 10:05:57;;;;;;;15.25;7.03;;;11.00;91.00;;;;;;4957098;28;20034;-89
2022/04/29 10:08:25;;;;;;;13.27;6.57;;;11.00;90.70;;;;;;4956316;28;20023;-89
2022/04/29 10:10:55;;;;;;;15.95;7.72;;;11.00;90.50;;;;;;4955886;28;20449;-88
2022/04/29 10:13:23;;;;;;;15.37;7.53;;;11.10;90.40;;;;;;4955624;28;20075;-88
2022/04/29 10:15:52;;;;;;;11.77;6.57;;;11.20;90.20;;;;;;4955475;28;20023;-88
2022/04/29 10:21:16;;;;;;;17.00;6.75;;;11.20;88.90;;;;;;4955470;29;20062;-89
2022/04/29 10:23:48;;;;;;;10.93;6.03;;;11.30;88.30;;;;;;4939043;29;20035;-89
2022/04/29 10:26:27;;;;;;;11.13;6.28;;;11.40;87.70;;;;;;4946377;29;20023;-90
2022/04/29 10:28:54;;;;;;;14.70;6.30;;;11.40;86.80;;;;;;4954935;28;20031;-90
2022/04/29 10:31:21;;;;;;;13.07;6.57;;;11.40;86.30;;;;;;4954744;28;20668;-88
2022/04/29 10:33:47;;;;;;;11.85;6.18;;;11.60;86.20;;;;;;4955110;29;20039;-91
2022/04/29 10:36:17;;;;;;;14.43;6.65;;;11.60;85.70;;;;;;4955003;29;20019;-88
2022/04/29 10:38:46;;;;;;;15.25;6.25;;;11.70;85.10;;;;;;4955476;29;20031;-89
2022/04/29 10:41:18;;;;;;;14.23;6.00;;;11.70;84.50;;;;;;4955056;29;20028;-89
2022/04/29 10:43:52;;;;;;;12.80;6.47;;;11.80;84.60;;;;;;4949973;29;20015;-89
2022/04/29 10:46:33;;;;;;;13.55;6.80;;;11.80;82.90;;;;;;4935963;29;20152;-89
2022/04/29 10:49:22;;;;;;;11.55;6.03;;;11.90;82.30;;;;;;4941285;29;20115;-89
2022/04/29 10:51:50;;;;;;;11.95;5.85;;;12.30;81.50;;;;;;4950617;29;20035;-88
2022/04/29 10:54:46;;;;;;;10.93;6.05;;;12.60;80.80;;;;;;4947583;29;20031;-90
2022/04/29 10:57:15;;;;;;;9.10;6.28;;;13.00;79.20;;;;;;4953744;29;20042;-89
2022/04/29 11:00:00;;;;;;;14.90;6.57;;;13.30;78.30;;;;;;4954177;29;20118;-89
2022/04/29 11:02:32;;;;;;;13.93;5.70;;;13.60;76.40;;;;;;4958723;28;20050;-89
2022/04/29 11:05:00;;;;;;;10.45;5.78;;;13.80;75.60;;;;;;4957529;29;20023;-89
2022/04/29 11:16:09;;;;;;;14.93;5.68;;;15.00;71.00;;;;;;5100841;23;20399;-89
2022/04/29 11:18:35;;;;;;;11.27;5.30;;;15.20;70.00;;;;;;4974538;28;20031;-89
2022/04/29 11:26:52;;;;;;;13.05;5.35;;;15.70;67.70;;;;;;4971656;28;20113;-88
2022/04/29 11:29:21;;;;;;;9.68;5.30;;;15.90;67.10;;;;;;4974332;28;20126;-88
2022/04/29 11:31:49;;;;;;;13.23;5.72;;;16.00;66.70;;;;;;4975148;28;20026;-91
2022/04/29 11:34:16;;;;;;;9.80;5.50;;;16.10;66.20;;;;;;4990508;28;20527;-89
2022/04/29 11:36:43;;;;;;;14.20;5.95;;;16.30;66.10;;;;;;4973097;28;20030;-90
2022/04/29 11:39:16;;;;;;;8.50;5.65;;;16.50;65.30;;;;;;4973425;28;20114;-89
2022/04/29 11:44:50;;;;;;;9.98;5.20;;;16.90;64.00;;;;;;4978779;23;20094;-90
2022/04/29 11:47:22;;;;;;;16.58;5.82;;;17.00;63.30;;;;;;4954681;29;20031;-88
2022/04/29 11:49:48;;;;;;;10.98;4.80;;;17.00;62.70;;;;;;4970542;28;20090;-89
2022/04/29 11:52:24;;;;;;;11.68;4.88;;;16.90;62.30;;;;;;4964198;28;20034;-89
2022/04/29 11:54:54;;;;;;;15.70;5.10;;;17.00;62.20;;;;;;4976528;28;20030;-88
2022/04/29 11:57:21;;;;;;;;;;;17.10;61.80;;;;;;4954903;29;20063;-89
2022/04/29 12:00:11;;;;;;;19.88;5.53;;;17.30;61.60;;;;;;4971657;28;19907;-89
2022/04/29 12:02:45;;;;;;;9.25;4.13;;;17.60;61.00;;;;;;4948874;29;20061;-90
2022/04/29 12:05:10;;;;;;;5.88;3.90;;;17.70;59.80;;;;;;4982065;28;20106;-88
2022/04/29 12:07:42;;;;;;;8.85;4.43;;;17.80;59.50;;;;;;4954406;28;20437;-89
2022/04/29 12:17:27;;;;;;;12.38;4.70;;;18.10;57.80;;;;;;6036379;23;20325;-88
2022/04/29 12:19:56;;;;;;;9.80;4.53;;;18.10;57.10;;;;;;4981611;28;20058;-89
2022/04/29 12:22:33;;;;;;;9.93;4.90;;;18.20;56.90;;;;;;4983743;28;20118;-89
2022/04/29 12:25:33;;;;;;;10.43;4.60;;;18.30;56.20;;;;;;4970377;28;20035;-89
2022/04/29 12:28:26;;;;;;;9.15;4.93;;;18.30;55.60;;;;;;4972778;28;20119;-88
2022/04/29 12:36:49;;;;;;;9.48;4.32;;;18.30;55.40;;;;;;4981350;28;20037;-89
2022/04/29 12:39:24;;;;;;;7.43;3.90;;;18.20;54.90;;;;;;4962089;28;20062;-89
2022/04/29 12:42:02;;;;;;;6.88;3.70;;;18.30;54.80;;;;;;4961299;28;20023;-90
2022/04/29 12:45:10;;;;;;;6.25;4.25;;;18.60;54.30;;;;;;4951880;28;20037;-89
2022/04/29 12:47:50;;;;;;;12.30;5.13;;;18.70;53.60;;;;;;4978514;28;20027;-89
2022/04/29 12:50:29;;;;;;;10.90;5.00;;;18.80;53.00;;;;;;4977418;28;20022;-88
2022/04/29 12:53:09;;;;;;;11.55;4.70;;;18.70;53.10;;;;;;4960464;28;20042;-88
2022/04/29 12:55:37;;;;;;;6.72;4.78;;;18.80;53.50;;;;;;4980640;28;20030;-88
2022/04/29 12:58:12;;;;;;;10.30;4.82;;;19.00;53.10;;;;;;5006022;28;20041;-89
2022/04/29 13:00:40;;;;;;;7.65;4.60;;;19.00;52.60;;;;;;4997219;28;20602;-88
2022/04/29 13:03:15;;;;;;;8.32;4.50;;;19.00;52.60;;;;;;4971875;28;20025;-90
2022/04/29 13:05:41;;;;;;;8.38;4.63;;;19.20;52.50;;;;;;4958610;28;20439;-89
2022/04/29 13:08:09;;;;;;;8.43;4.25;;;19.30;52.20;;;;;;4960014;28;20035;-88
2022/04/29 13:10:52;;;;;;;7.05;4.10;;;19.40;52.10;;;;;;4958964;28;20023;-88
2022/04/29 13:13:20;;;;;;;8.05;4.20;;;19.60;51.50;;;;;;4958125;28;20102;-88
2022/04/29 13:15:46;;;;;;;5.93;4.43;;;19.90;51.10;;;;;;4957553;28;20047;-88
2022/04/29 13:18:12;;;;;;;10.82;5.28;;;20.00;50.70;;;;;;4961737;28;20343;-89
2022/04/29 13:20:39;;;;;;;8.85;5.47;;;20.00;50.70;;;;;;4973729;28;20484;-90
2022/04/29 13:23:05;;;;;;;12.93;5.10;;;20.20;50.80;;;;;;4976212;28;20055;-88
2022/04/29 13:25:35;;;;;;;9.55;4.93;;;20.30;50.90;;;;;;4976699;28;20030;-88
2022/04/29 13:28:01;;;;;;;10.18;5.53;;;20.40;50.40;;;;;;4978054;28;20026;-89
2022/04/29 13:30:35;;;;;;;13.50;4.60;;;20.40;50.50;;;;;;4979030;28;20057;-89
2022/04/29 13:33:01;;;;;;;12.93;4.72;;;20.30;50.80;;;;;;4984156;28;20073;-90
2022/04/29 13:35:28;;;;;;;11.63;5.53;;;20.40;50.50;;;;;;4986282;28;20037;-92
2022/04/29 13:38:19;;;;;;;7.93;5.10;;;20.50;50.40;;;;;;4979468;28;20124;-90
2022/04/29 13:40:45;;;;;;;12.48;5.18;;;20.40;50.10;;;;;;4978802;28;20472;-88
2022/04/29 13:43:12;;;;;;;13.20;5.18;;;20.40;50.20;;;;;;4979255;28;20030;-89
2022/04/29 13:45:39;;;;;;;8.82;4.93;;;20.50;50.20;;;;;;4996079;28;20491;-89